createdAt,value
2022-10-13T00:00:59.208Z,10.56
2022-10-13T00:03:28.073Z,10.58
2022-10-13T00:05:54.504Z,10.53
2022-10-13T00:08:22.299Z,10.52
2022-10-13T00:10:51.282Z,10.53
2022-10-13T00:13:19.228Z,10.53
2022-10-13T00:15:50.172Z,10.52
2022-10-13T00:18:17.017Z,10.44
2022-10-13T00:20:46.202Z,10.47
2022-10-13T00:23:13.962Z,10.46
2022-10-13T00:25:42.471Z,10.44
2022-10-13T00:28:12.248Z,10.41
2022-10-13T00:30:39.231Z,10.57
2022-10-13T00:33:06.046Z,10.55
2022-10-13T00:35:33.508Z,10.54
2022-10-13T00:38:00.188Z,10.48
2022-10-13T00:40:26.686Z,10.54
2022-10-13T00:42:55.618Z,10.52
2022-10-13T00:45:25.632Z,10.45
2022-10-13T00:47:57.613Z,10.43
2022-10-13T00:50:29.898Z,10.48
2022-10-13T00:52:57.787Z,10.51
2022-10-13T00:55:28.798Z,10.39
2022-10-13T00:57:56.146Z,10.42
2022-10-13T01:00:24.364Z,10.44
2022-10-13T01:02:51.220Z,10.34
2022-10-13T01:05:21.185Z,10.29
2022-10-13T01:07:49.842Z,10.23
2022-10-13T01:10:35.119Z,10.18
2022-10-13T01:13:33.861Z,10.18
2022-10-13T01:16:09.558Z,10.24
2022-10-13T01:19:09.934Z,10.18
2022-10-13T01:21:38.406Z,10.15
2022-10-13T01:24:42.458Z,10.12
2022-10-13T01:27:13.868Z,10.11
2022-10-13T01:29:58.537Z,10.04
2022-10-13T01:32:51.717Z,10.05
2022-10-13T01:35:42.518Z,10.00
2022-10-13T01:38:29.780Z,10.02
2022-10-13T01:40:59.169Z,10.03
2022-10-13T01:43:30.548Z,10.00
2022-10-13T01:46:00.508Z,10.03
2022-10-13T01:48:28.663Z,10.02
2022-10-13T01:50:58.426Z,10.04
2022-10-13T01:53:25.481Z,10.05
2022-10-13T01:56:01.061Z,10.11
2022-10-13T01:58:30.487Z,10.14
2022-10-13T02:01:20.529Z,10.18
2022-10-13T02:04:00.241Z,10.31
2022-10-13T02:06:44.869Z,10.35
2022-10-13T02:09:18.515Z,10.38
2022-10-13T02:11:51.902Z,10.41
2022-10-13T02:14:24.064Z,10.43
2022-10-13T02:16:50.775Z,10.51
2022-10-13T02:19:20.416Z,10.65
2022-10-13T02:21:48.336Z,10.68
2022-10-13T02:24:14.982Z,10.63
2022-10-13T02:26:41.752Z,10.74
2022-10-13T02:29:10.595Z,10.81
2022-10-13T02:31:38.232Z,10.87
2022-10-13T02:34:05.945Z,10.87
2022-10-13T02:36:33.251Z,10.85
2022-10-13T02:38:59.730Z,10.88
2022-10-13T02:41:31.276Z,10.92
2022-10-13T02:43:57.703Z,10.93
2022-10-13T02:46:26.383Z,10.98
2022-10-13T02:48:53.016Z,11.04
2022-10-13T02:51:19.463Z,11.03
2022-10-13T02:53:45.951Z,11.10
2022-10-13T02:56:12.412Z,11.08
2022-10-13T02:58:38.847Z,11.11
2022-10-13T03:01:11.325Z,11.14
2022-10-13T03:03:40.426Z,11.15
2022-10-13T03:06:12.071Z,11.14
2022-10-13T03:08:38.539Z,11.13
2022-10-13T03:11:05.063Z,11.15
2022-10-13T03:13:31.901Z,11.16
2022-10-13T03:16:00.858Z,11.16
2022-10-13T03:18:31.998Z,11.11
2022-10-13T03:21:05.206Z,11.13
2022-10-13T03:23:32.923Z,11.14
2022-10-13T03:25:59.831Z,11.14
2022-10-13T03:28:26.375Z,11.09
2022-10-13T03:31:04.469Z,11.14
2022-10-13T03:33:33.086Z,11.08
2022-10-13T03:36:04.948Z,11.09
2022-10-13T03:38:33.860Z,11.07
2022-10-13T03:41:26.529Z,11.06
2022-10-13T03:43:52.927Z,11.04
2022-10-13T03:46:19.329Z,11.07
2022-10-13T03:48:46.844Z,11.02
2022-10-13T03:51:16.155Z,11.00
2022-10-13T03:53:42.555Z,10.99
2022-10-13T03:56:14.288Z,10.99
2022-10-13T03:58:40.721Z,11.03
2022-10-13T04:01:10.492Z,11.01
2022-10-13T04:03:36.934Z,11.00
2022-10-13T04:06:05.327Z,11.00
2022-10-13T04:08:33.402Z,11.02
2022-10-13T04:11:07.592Z,11.01
2022-10-13T04:13:34.572Z,11.01
2022-10-13T04:16:06.472Z,11.02
2022-10-13T04:18:42.346Z,11.03
2022-10-13T04:21:14.963Z,11.04
2022-10-13T04:23:41.856Z,11.03
2022-10-13T04:26:18.470Z,11.04
2022-10-13T04:28:47.064Z,11.04
2022-10-13T04:31:14.413Z,11.05
2022-10-13T04:33:40.894Z,11.05
2022-10-13T04:36:12.070Z,11.04
2022-10-13T04:38:38.747Z,11.05
2022-10-13T04:41:07.075Z,11.06
2022-10-13T04:43:36.565Z,11.06
2022-10-13T04:46:08.613Z,11.06
2022-10-13T04:48:35.290Z,11.04
2022-10-13T04:51:04.133Z,11.06
2022-10-13T04:53:31.279Z,11.08
2022-10-13T04:56:01.358Z,11.08
2022-10-13T04:58:27.864Z,11.04
2022-10-13T05:00:54.233Z,11.02
2022-10-13T05:03:20.614Z,11.03
2022-10-13T05:05:49.636Z,11.01
2022-10-13T05:08:16.235Z,10.99
2022-10-13T05:11:02.533Z,11.00
2022-10-13T05:13:31.965Z,11.02
2022-10-13T05:15:58.517Z,10.95
2022-10-13T05:18:25.271Z,10.99
2022-10-13T05:20:51.716Z,10.93
2022-10-13T05:23:18.135Z,10.91
2022-10-13T05:25:44.708Z,10.88
2022-10-13T05:28:11.113Z,10.85
2022-10-13T05:30:37.517Z,10.90
2022-10-13T05:33:03.923Z,10.87
2022-10-13T05:35:30.437Z,10.79
2022-10-13T05:37:56.874Z,10.70
2022-10-13T05:40:23.450Z,10.65
2022-10-13T05:42:51.362Z,10.63
2022-10-13T05:45:19.473Z,10.59
2022-10-13T05:47:48.225Z,10.55
2022-10-13T05:50:14.649Z,10.54
2022-10-13T05:52:44.386Z,10.63
2022-10-13T05:55:15.885Z,10.69
2022-10-13T05:57:52.206Z,10.61
2022-10-13T06:00:19.352Z,10.64
2022-10-13T06:02:54.797Z,10.61
2022-10-13T06:05:24.907Z,10.64
2022-10-13T06:07:51.580Z,10.61
2022-10-13T06:10:18.827Z,10.63
2022-10-13T06:12:45.280Z,10.62
2022-10-13T06:15:12.032Z,10.62
2022-10-13T06:17:39.058Z,10.68
2022-10-13T06:20:07.446Z,10.76
2022-10-13T06:22:35.223Z,10.75
2022-10-13T06:25:02.371Z,10.70
2022-10-13T06:27:29.278Z,10.68
2022-10-13T06:29:55.663Z,10.70
2022-10-13T06:32:22.564Z,10.72
2022-10-13T06:34:49.407Z,10.76
2022-10-13T06:37:15.829Z,10.78
2022-10-13T06:39:47.346Z,10.85
2022-10-13T06:42:13.997Z,10.91
2022-10-13T06:44:40.426Z,10.92
2022-10-13T06:47:06.944Z,10.97
2022-10-13T06:49:33.444Z,11.02
2022-10-13T06:51:59.871Z,11.09
2022-10-13T06:54:26.272Z,11.14
2022-10-13T06:56:52.727Z,11.20
2022-10-13T06:59:19.165Z,11.23
2022-10-13T07:01:48.855Z,11.33
2022-10-13T07:04:15.899Z,11.43
2022-10-13T07:06:44.866Z,11.51
2022-10-13T07:09:11.379Z,11.56
2022-10-13T07:11:38.862Z,11.66
2022-10-13T07:14:05.325Z,11.58
2022-10-13T07:16:34.387Z,11.72
2022-10-13T07:19:03.214Z,11.78
2022-10-13T07:21:33.204Z,11.88
2022-10-13T07:24:01.358Z,11.95
2022-10-13T07:26:27.829Z,11.92
2022-10-13T07:28:54.323Z,11.95
2022-10-13T07:31:21.112Z,12.00
2022-10-13T07:33:49.874Z,12.12
2022-10-13T07:36:21.973Z,12.25
2022-10-13T07:38:48.341Z,12.27
2022-10-13T07:41:15.131Z,12.23
2022-10-13T07:43:41.942Z,12.32
2022-10-13T07:46:10.262Z,12.26
2022-10-13T07:48:36.831Z,12.30
2022-10-13T07:51:06.001Z,12.27
2022-10-13T07:53:35.335Z,12.31
2022-10-13T07:56:03.823Z,12.35
2022-10-13T07:58:30.463Z,12.43
2022-10-13T08:01:01.107Z,12.46
2022-10-13T08:03:28.410Z,12.54
2022-10-13T08:05:59.428Z,12.59
2022-10-13T08:08:25.892Z,12.60
2022-10-13T08:13:23.935Z,12.85
2022-10-13T08:15:50.437Z,12.94
2022-10-13T08:18:19.278Z,13.08
2022-10-13T08:20:46.230Z,13.12
2022-10-13T08:23:13.719Z,13.28
2022-10-13T08:25:42.824Z,13.25
2022-10-13T08:28:24.528Z,13.24
2022-10-13T08:30:51.888Z,13.32
2022-10-13T08:33:18.386Z,13.30
2022-10-13T08:35:44.878Z,13.25
2022-10-13T08:38:11.389Z,13.32
2022-10-13T08:40:39.122Z,13.24
2022-10-13T08:43:08.134Z,13.28
2022-10-13T08:45:41.218Z,13.32
2022-10-13T08:48:32.527Z,13.31
2022-10-13T08:51:06.107Z,13.26
2022-10-13T08:53:44.069Z,13.17
2022-10-13T08:56:16.956Z,13.16
2022-10-13T08:58:43.911Z,13.17
2022-10-13T09:01:28.205Z,13.14
2022-10-13T09:04:04.021Z,13.10
2022-10-13T09:06:37.812Z,13.07
2022-10-13T09:09:11.581Z,13.12
2022-10-13T09:11:41.135Z,13.10
2022-10-13T09:14:24.434Z,13.14
2022-10-13T09:16:52.284Z,13.19
2022-10-13T09:19:36.615Z,13.22
2022-10-13T09:22:34.333Z,13.29
2022-10-13T09:25:06.731Z,13.34
2022-10-13T09:27:42.348Z,13.31
2022-10-13T09:30:26.295Z,13.36
2022-10-13T09:33:08.925Z,13.25
2022-10-13T09:35:36.711Z,13.33
2022-10-13T09:38:13.940Z,13.25
2022-10-13T09:40:41.294Z,13.23
2022-10-13T09:43:30.317Z,13.25
2022-10-13T09:45:58.473Z,13.27
2022-10-13T09:48:36.618Z,13.29
2022-10-13T09:51:03.353Z,13.32
2022-10-13T09:53:38.034Z,13.36
2022-10-13T09:56:08.674Z,13.32
2022-10-13T09:58:42.335Z,13.36
2022-10-13T10:01:22.149Z,13.40
2022-10-13T10:03:53.222Z,13.35
2022-10-13T10:06:21.719Z,13.40
2022-10-13T10:09:06.505Z,13.43
2022-10-13T10:11:41.627Z,13.44
2022-10-13T10:14:26.639Z,13.34
2022-10-13T10:17:17.259Z,13.37
2022-10-13T10:20:09.476Z,13.49
2022-10-13T10:22:44.396Z,13.63
2022-10-13T10:25:42.811Z,13.57
2022-10-13T10:28:28.089Z,13.54
2022-10-13T10:31:35.392Z,13.55
2022-10-13T10:34:23.972Z,13.61
2022-10-13T10:37:08.503Z,13.65
2022-10-13T10:40:07.576Z,13.70
2022-10-13T10:42:59.166Z,13.78
2022-10-13T10:45:33.976Z,13.73
2022-10-13T10:48:16.298Z,13.66
2022-10-13T10:50:43.166Z,13.73
2022-10-13T10:53:20.979Z,13.68
2022-10-13T10:56:14.433Z,13.65
2022-10-13T10:58:58.510Z,13.64
2022-10-13T11:01:37.116Z,13.72
2022-10-13T11:04:32.801Z,13.75
2022-10-13T11:06:59.593Z,13.73
2022-10-13T11:09:41.577Z,13.83
2022-10-13T11:12:44.878Z,13.91
2022-10-13T11:15:25.593Z,14.00
2022-10-13T11:17:54.917Z,14.09
2022-10-13T11:20:21.282Z,14.27
2022-10-13T11:23:00.082Z,14.45
2022-10-13T11:25:39.491Z,14.51
2022-10-13T11:28:21.023Z,14.74
2022-10-13T11:30:52.631Z,14.75
2022-10-13T11:33:38.224Z,14.95
2022-10-13T11:36:29.781Z,15.04
2022-10-13T11:39:02.645Z,15.17
2022-10-13T11:41:35.007Z,15.26
2022-10-13T11:44:15.321Z,15.48
2022-10-13T11:47:12.803Z,15.65
2022-10-13T11:49:55.153Z,15.62
2022-10-13T11:52:27.706Z,15.87
2022-10-13T11:55:01.415Z,16.11
2022-10-13T11:57:27.997Z,16.10
2022-10-13T11:59:56.394Z,16.11
2022-10-13T12:02:26.469Z,16.06
2022-10-13T12:05:08.720Z,16.10
2022-10-13T12:07:41.605Z,16.11
2022-10-13T12:10:18.665Z,16.11
2022-10-13T12:12:49.547Z,16.13
2022-10-13T12:15:30.107Z,16.20
2022-10-13T12:17:56.583Z,16.23
2022-10-13T12:20:27.426Z,16.33
2022-10-13T12:22:55.017Z,16.35
2022-10-13T12:25:28.094Z,16.46
2022-10-13T12:28:00.211Z,16.56
2022-10-13T12:30:29.690Z,16.59
2022-10-13T12:32:58.396Z,16.60
2022-10-13T12:35:34.877Z,16.67
2022-10-13T12:38:05.184Z,16.62
2022-10-13T12:40:32.047Z,16.58
2022-10-13T12:43:01.413Z,16.54
2022-10-13T12:45:32.021Z,16.49
2022-10-13T12:47:58.495Z,16.50
2022-10-13T12:50:35.657Z,16.49
2022-10-13T12:53:07.909Z,16.44
2022-10-13T12:55:36.046Z,16.51
2022-10-13T12:58:03.061Z,16.50
2022-10-13T13:00:30.829Z,16.55
2022-10-13T13:03:02.340Z,16.60
2022-10-13T13:05:35.225Z,16.59
2022-10-13T13:08:04.495Z,16.62
2022-10-13T13:10:35.047Z,16.67
2022-10-13T13:13:15.198Z,16.64
2022-10-13T13:15:48.937Z,16.74
2022-10-13T13:18:37.948Z,16.77
2022-10-13T13:21:05.937Z,16.73
2022-10-13T13:23:35.814Z,16.68
2022-10-13T13:26:17.400Z,16.67
2022-10-13T13:28:49.186Z,16.70
2022-10-13T13:31:18.514Z,16.69
2022-10-13T13:33:46.044Z,16.63
2022-10-13T13:36:18.971Z,16.68
2022-10-13T13:38:45.624Z,16.67
2022-10-13T13:41:17.226Z,16.65
2022-10-13T13:43:43.713Z,16.62
2022-10-13T13:46:23.354Z,16.49
2022-10-13T13:48:52.431Z,16.53
2022-10-13T13:51:19.016Z,16.57
2022-10-13T13:53:46.053Z,16.59
2022-10-13T13:56:22.294Z,16.68
2022-10-13T13:58:48.781Z,16.68
2022-10-13T14:01:15.726Z,16.76
2022-10-13T14:03:42.390Z,16.86
2022-10-13T14:06:09.101Z,16.93
2022-10-13T14:08:43.195Z,16.98
2022-10-13T14:11:10.165Z,16.94
2022-10-13T14:13:36.772Z,16.96
2022-10-13T14:16:03.879Z,16.91
2022-10-13T14:18:31.158Z,16.87
2022-10-13T14:20:57.653Z,16.85
2022-10-13T14:23:24.071Z,16.76
2022-10-13T14:25:50.578Z,16.75
2022-10-13T14:28:18.377Z,16.73
2022-10-13T14:30:50.244Z,16.72
2022-10-13T14:33:19.435Z,16.79
2022-10-13T14:35:46.792Z,16.69
2022-10-13T14:38:13.942Z,16.59
2022-10-13T14:40:43.959Z,16.56
2022-10-13T14:43:12.472Z,16.48
2022-10-13T14:45:38.904Z,16.47
2022-10-13T14:48:05.758Z,16.48
2022-10-13T14:50:34.430Z,16.41
2022-10-13T14:53:03.433Z,16.33
2022-10-13T14:55:31.988Z,16.22
2022-10-13T14:57:58.386Z,16.20
2022-10-13T15:00:26.948Z,16.20
2022-10-13T15:02:53.370Z,16.13
2022-10-13T15:05:20.194Z,16.12
2022-10-13T15:07:46.633Z,16.05
2022-10-13T15:10:13.129Z,16.03
2022-10-13T15:12:39.638Z,15.95
2022-10-13T15:15:08.834Z,15.91
2022-10-13T15:17:36.974Z,15.87
2022-10-13T15:20:04.674Z,15.84
2022-10-13T15:22:31.384Z,15.80
2022-10-13T15:24:57.875Z,15.78
2022-10-13T15:27:24.363Z,15.76
2022-10-13T15:29:52.919Z,15.74
2022-10-13T15:32:20.452Z,15.75
2022-10-13T15:34:47.338Z,15.74
2022-10-13T15:37:13.834Z,15.69
2022-10-13T15:39:40.209Z,15.67
2022-10-13T15:42:06.718Z,15.64
2022-10-13T15:44:57.437Z,15.59
2022-10-13T15:47:24.886Z,15.59
2022-10-13T15:49:54.382Z,15.54
2022-10-13T15:52:21.008Z,15.52
2022-10-13T15:54:51.409Z,15.51
2022-10-13T15:57:22.791Z,15.49
2022-10-13T15:59:51.715Z,15.44
2022-10-13T16:02:18.569Z,15.40
2022-10-13T16:04:45.295Z,15.33
2022-10-13T16:07:11.711Z,15.31
2022-10-13T16:09:40.421Z,15.28
2022-10-13T16:12:07.014Z,15.25
2022-10-13T16:14:33.417Z,15.21
2022-10-13T16:17:00.351Z,15.19
2022-10-13T16:19:26.753Z,15.15
2022-10-13T16:21:53.172Z,15.09
2022-10-13T16:24:19.821Z,15.06
2022-10-13T16:26:48.947Z,14.99
2022-10-13T16:29:15.423Z,14.97
2022-10-13T16:31:41.874Z,14.92
2022-10-13T16:34:10.987Z,14.89
2022-10-13T16:36:37.415Z,14.88
2022-10-13T16:39:04.086Z,14.82
2022-10-13T16:41:30.548Z,14.78
2022-10-13T16:43:56.928Z,14.74
2022-10-13T16:46:23.621Z,14.73
2022-10-13T16:48:50.125Z,14.70
2022-10-13T16:51:19.395Z,14.66
2022-10-13T16:53:50.703Z,14.65
2022-10-13T16:56:22.197Z,14.63
2022-10-13T16:58:55.520Z,14.59
2022-10-13T17:01:22.374Z,14.56
2022-10-13T17:03:50.580Z,14.51
2022-10-13T17:06:22.971Z,14.48
2022-10-13T17:08:50.087Z,14.43
2022-10-13T17:11:22.348Z,14.43
2022-10-13T17:13:49.680Z,14.43
2022-10-13T17:16:17.146Z,14.40
2022-10-13T17:18:43.749Z,14.37
2022-10-13T17:21:14.270Z,14.37
2022-10-13T17:23:43.554Z,14.35
2022-10-13T17:26:15.010Z,14.34
2022-10-13T17:28:42.105Z,14.33
2022-10-13T17:31:21.762Z,14.32
2022-10-13T17:33:49.690Z,14.36
2022-10-13T17:36:24.768Z,14.31
2022-10-13T17:38:52.753Z,14.30
2022-10-13T17:41:20.137Z,14.30
2022-10-13T17:43:46.566Z,14.27
2022-10-13T17:46:39.043Z,14.24
2022-10-13T17:49:09.929Z,14.21
2022-10-13T17:51:36.478Z,14.19
2022-10-13T17:54:03.315Z,14.16
2022-10-13T17:56:32.665Z,14.22
2022-10-13T17:59:00.659Z,14.28
2022-10-13T18:01:30.074Z,14.26
2022-10-13T18:04:05.605Z,14.20
2022-10-13T18:06:39.787Z,14.13
2022-10-13T18:09:10.970Z,14.11
2022-10-13T18:11:43.344Z,14.06
2022-10-13T18:14:14.312Z,14.14
2022-10-13T18:16:42.396Z,14.14
2022-10-13T18:19:08.825Z,14.11
2022-10-13T18:21:37.939Z,14.05
2022-10-13T18:24:09.636Z,14.02
2022-10-13T18:26:36.167Z,13.98
2022-10-13T18:29:03.943Z,13.96
2022-10-13T18:31:35.204Z,13.94
2022-10-13T18:34:07.594Z,13.90
2022-10-13T18:36:39.590Z,13.89
2022-10-13T18:39:27.632Z,13.87
2022-10-13T18:42:00.398Z,13.85
2022-10-13T18:44:26.941Z,13.83
2022-10-13T18:46:56.311Z,13.81
2022-10-13T18:49:30.558Z,13.80
2022-10-13T18:51:58.582Z,13.80
2022-10-13T18:54:26.107Z,13.86
2022-10-13T18:56:52.770Z,13.79
2022-10-13T18:59:19.492Z,13.76
2022-10-13T19:01:46.165Z,13.77
2022-10-13T19:04:14.621Z,13.74
2022-10-13T19:06:41.276Z,13.71
2022-10-13T19:09:10.706Z,13.71
2022-10-13T19:11:37.528Z,13.71
2022-10-13T19:14:06.864Z,13.77
2022-10-13T19:16:37.054Z,13.83
2022-10-13T19:19:03.618Z,13.79
2022-10-13T19:21:30.150Z,13.74
2022-10-13T19:23:59.626Z,13.71
2022-10-13T19:26:31.535Z,13.73
2022-10-13T19:29:03.676Z,13.70
2022-10-13T19:31:30.713Z,13.68
2022-10-13T19:33:58.653Z,13.73
2022-10-13T19:36:40.879Z,13.79
2022-10-13T19:39:13.461Z,13.80
2022-10-13T19:41:40.044Z,13.78
2022-10-13T19:44:06.477Z,13.72
2022-10-13T19:46:37.236Z,13.74
2022-10-13T19:49:06.746Z,13.71
2022-10-13T19:51:33.908Z,13.70
2022-10-13T19:54:01.492Z,13.73
2022-10-13T19:56:33.867Z,13.72
2022-10-13T19:59:01.424Z,13.72
2022-10-13T20:01:30.621Z,13.74
2022-10-13T20:03:57.156Z,13.73
2022-10-13T20:06:23.668Z,13.72
2022-10-13T20:08:50.417Z,13.70
2022-10-13T20:11:23.757Z,13.68
2022-10-13T20:13:51.722Z,13.71
2022-10-13T20:16:23.141Z,13.73
2022-10-13T20:18:56.940Z,13.70
2022-10-13T20:21:26.840Z,13.76
2022-10-13T20:23:54.422Z,13.75
2022-10-13T20:26:21.881Z,13.76
2022-10-13T20:28:49.758Z,13.76
2022-10-13T20:31:19.155Z,13.69
2022-10-13T20:33:47.189Z,13.71
2022-10-13T20:36:16.229Z,13.73
2022-10-13T20:38:47.195Z,13.70
2022-10-13T20:41:21.171Z,13.74
2022-10-13T20:43:49.429Z,13.78
2022-10-13T20:46:17.407Z,13.77
2022-10-13T20:51:30.621Z,13.75
2022-10-13T20:53:57.634Z,13.75
2022-10-13T20:56:25.797Z,13.76
2022-10-13T20:58:53.061Z,13.79
2022-10-13T21:01:23.006Z,13.79
2022-10-13T21:03:56.004Z,13.79
2022-10-13T21:06:24.240Z,13.78
2022-10-13T21:08:56.214Z,13.74
2022-10-13T21:11:23.806Z,13.71
2022-10-13T21:13:51.640Z,13.71
2022-10-13T21:16:20.928Z,13.69
2022-10-13T21:18:49.196Z,13.67
2022-10-13T21:21:25.095Z,13.64
2022-10-13T21:23:56.984Z,13.61
2022-10-13T21:26:24.669Z,13.61
2022-10-13T21:28:51.510Z,13.59
2022-10-13T21:31:22.235Z,13.58
2022-10-13T21:33:49.810Z,13.57
2022-10-13T21:36:20.754Z,13.54
2022-10-13T21:38:50.600Z,13.54
2022-10-13T21:41:17.411Z,13.53
2022-10-13T21:43:43.808Z,13.54
2022-10-13T21:46:12.422Z,13.50
2022-10-13T21:48:39.533Z,13.50
2022-10-13T21:51:15.438Z,13.48
2022-10-13T21:53:41.983Z,13.51
2022-10-13T21:56:09.874Z,13.50
2022-10-13T21:58:36.282Z,13.49
2022-10-13T22:01:04.614Z,13.50
2022-10-13T22:03:32.082Z,13.48
2022-10-13T22:05:58.817Z,13.47
2022-10-13T22:08:37.584Z,13.44
2022-10-13T22:11:05.491Z,13.42
2022-10-13T22:13:32.239Z,13.40
2022-10-13T22:16:05.035Z,13.38
2022-10-13T22:18:31.431Z,13.37
2022-10-13T22:21:13.063Z,13.37
2022-10-13T22:23:39.588Z,13.36
2022-10-13T22:26:07.545Z,13.36
2022-10-13T22:28:37.256Z,13.34
2022-10-13T22:31:12.624Z,13.37
2022-10-13T22:33:40.635Z,13.37
2022-10-13T22:36:14.524Z,13.35
2022-10-13T22:38:41.133Z,13.37
2022-10-13T22:41:08.417Z,13.36
2022-10-13T22:43:35.147Z,13.36
2022-10-13T22:46:04.353Z,13.34
2022-10-13T22:48:34.747Z,13.34
2022-10-13T22:51:07.850Z,13.33
2022-10-13T22:53:34.408Z,13.37
2022-10-13T22:56:05.883Z,13.35
2022-10-13T22:58:32.346Z,13.36
2022-10-13T23:01:09.421Z,13.32
2022-10-13T23:03:36.629Z,13.34
2022-10-13T23:06:04.197Z,13.33
2022-10-13T23:08:31.247Z,13.32
2022-10-13T23:10:57.946Z,13.33
2022-10-13T23:13:27.730Z,13.32
2022-10-13T23:15:54.177Z,13.31
2022-10-13T23:18:20.592Z,13.29
2022-10-13T23:20:47.061Z,13.30
2022-10-13T23:23:13.608Z,13.29
2022-10-13T23:25:45.072Z,13.29
2022-10-13T23:28:13.713Z,13.26
2022-10-13T23:30:40.250Z,13.25
2022-10-13T23:33:06.821Z,13.22
2022-10-13T23:35:35.670Z,13.20
2022-10-13T23:38:02.063Z,13.30
2022-10-13T23:40:28.526Z,13.23
2022-10-13T23:42:54.930Z,13.23
2022-10-13T23:45:21.404Z,13.21
2022-10-13T23:47:48.083Z,13.19
2022-10-13T23:50:14.658Z,13.17
2022-10-13T23:52:43.575Z,13.16
2022-10-13T23:55:13.068Z,13.14
2022-10-13T23:57:39.450Z,13.14
